sensor_id;sensor_type;location;lat;lon;timestamp;P1;durP1;ratioP1;P2;durP2;ratioP2
12774;SDS011;6451;42.630;23.382;2023-05-14T00:00:11;3.80;;;3.43;;
12774;SDS011;6451;42.630;23.382;2023-05-14T00:02:39;4.57;;;3.27;;
12774;SDS011;6451;42.630;23.382;2023-05-14T00:05:07;4.53;;;3.23;;
12774;SDS011;6451;42.630;23.382;2023-05-14T00:07:36;3.53;;;3.10;;
12774;SDS011;6451;42.630;23.382;2023-05-14T00:10:03;4.50;;;3.23;;
12774;SDS011;6451;42.630;23.382;2023-05-14T00:12:30;5.10;;;3.20;;
12774;SDS011;6451;42.630;23.382;2023-05-14T00:14:57;3.60;;;3.30;;
12774;SDS011;6451;42.630;23.382;2023-05-14T00:17:24;5.73;;;3.33;;
12774;SDS011;6451;42.630;23.382;2023-05-14T00:19:51;5.43;;;3.30;;
12774;SDS011;6451;42.630;23.382;2023-05-14T00:22:18;4.97;;;3.37;;
12774;SDS011;6451;42.630;23.382;2023-05-14T00:24:47;3.93;;;3.53;;
12774;SDS011;6451;42.630;23.382;2023-05-14T00:27:14;5.30;;;3.57;;
12774;SDS011;6451;42.630;23.382;2023-05-14T00:29:41;3.57;;;3.27;;
12774;SDS011;6451;42.630;23.382;2023-05-14T00:32:07;6.53;;;3.37;;
12774;SDS011;6451;42.630;23.382;2023-05-14T00:34:35;5.00;;;3.50;;
12774;SDS011;6451;42.630;23.382;2023-05-14T00:37:01;5.30;;;3.20;;
12774;SDS011;6451;42.630;23.382;2023-05-14T00:39:28;3.50;;;3.00;;
12774;SDS011;6451;42.630;23.382;2023-05-14T00:41:57;3.60;;;3.30;;
12774;SDS011;6451;42.630;23.382;2023-05-14T00:44:23;5.03;;;3.40;;
12774;SDS011;6451;42.630;23.382;2023-05-14T00:46:51;4.40;;;3.50;;
12774;SDS011;6451;42.630;23.382;2023-05-14T00:49:18;5.53;;;3.03;;
12774;SDS011;6451;42.630;23.382;2023-05-14T00:51:45;4.20;;;3.40;;
12774;SDS011;6451;42.630;23.382;2023-05-14T00:54:12;4.23;;;3.03;;
12774;SDS011;6451;42.630;23.382;2023-05-14T00:56:40;5.77;;;3.30;;
12774;SDS011;6451;42.630;23.382;2023-05-14T00:59:10;3.87;;;3.40;;
12774;SDS011;6451;42.630;23.382;2023-05-14T01:01:42;3.90;;;3.47;;
12774;SDS011;6451;42.630;23.382;2023-05-14T01:04:15;3.63;;;3.30;;
12774;SDS011;6451;42.630;23.382;2023-05-14T01:06:49;3.60;;;3.20;;
12774;SDS011;6451;42.630;23.382;2023-05-14T01:09:25;3.83;;;3.43;;
12774;SDS011;6451;42.630;23.382;2023-05-14T01:11:59;3.47;;;2.90;;
12774;SDS011;6451;42.630;23.382;2023-05-14T01:14:35;4.63;;;2.80;;
12774;SDS011;6451;42.630;23.382;2023-05-14T01:17:06;4.93;;;3.00;;
12774;SDS011;6451;42.630;23.382;2023-05-14T01:19:38;3.73;;;2.80;;
12774;SDS011;6451;42.630;23.382;2023-05-14T01:22:08;5.03;;;2.63;;
12774;SDS011;6451;42.630;23.382;2023-05-14T01:24:35;4.97;;;2.90;;
12774;SDS011;6451;42.630;23.382;2023-05-14T01:27:05;2.93;;;2.63;;
12774;SDS011;6451;42.630;23.382;2023-05-14T01:29:36;4.53;;;2.77;;
12774;SDS011;6451;42.630;23.382;2023-05-14T01:32:05;3.50;;;2.80;;
12774;SDS011;6451;42.630;23.382;2023-05-14T01:34:34;3.60;;;2.93;;
12774;SDS011;6451;42.630;23.382;2023-05-14T01:37:01;4.37;;;2.93;;
12774;SDS011;6451;42.630;23.382;2023-05-14T01:39:30;3.77;;;2.90;;
12774;SDS011;6451;42.630;23.382;2023-05-14T01:41:58;3.33;;;2.70;;
12774;SDS011;6451;42.630;23.382;2023-05-14T01:44:26;3.20;;;2.57;;
12774;SDS011;6451;42.630;23.382;2023-05-14T01:46:54;3.30;;;2.80;;
12774;SDS011;6451;42.630;23.382;2023-05-14T01:49:21;3.57;;;2.70;;
12774;SDS011;6451;42.630;23.382;2023-05-14T01:51:50;3.20;;;2.40;;
12774;SDS011;6451;42.630;23.382;2023-05-14T01:54:17;3.40;;;2.40;;
12774;SDS011;6451;42.630;23.382;2023-05-14T01:56:46;2.90;;;2.60;;
12774;SDS011;6451;42.630;23.382;2023-05-14T01:59:13;3.60;;;3.03;;
12774;SDS011;6451;42.630;23.382;2023-05-14T02:01:41;3.70;;;2.70;;
12774;SDS011;6451;42.630;23.382;2023-05-14T02:04:08;3.33;;;3.03;;
12774;SDS011;6451;42.630;23.382;2023-05-14T02:06:35;2.93;;;2.63;;
12774;SDS011;6451;42.630;23.382;2023-05-14T02:09:01;5.17;;;3.10;;
12774;SDS011;6451;42.630;23.382;2023-05-14T02:11:29;6.43;;;3.07;;
12774;SDS011;6451;42.630;23.382;2023-05-14T02:13:58;3.93;;;2.83;;
12774;SDS011;6451;42.630;23.382;2023-05-14T02:16:24;4.63;;;3.00;;
12774;SDS011;6451;42.630;23.382;2023-05-14T02:18:51;3.33;;;3.03;;
12774;SDS011;6451;42.630;23.382;2023-05-14T02:21:18;3.83;;;3.43;;
12774;SDS011;6451;42.630;23.382;2023-05-14T02:23:45;4.13;;;2.90;;
12774;SDS011;6451;42.630;23.382;2023-05-14T02:26:14;4.50;;;2.87;;
12774;SDS011;6451;42.630;23.382;2023-05-14T02:28:41;3.40;;;3.10;;
12774;SDS011;6451;42.630;23.382;2023-05-14T02:31:11;4.60;;;2.80;;
12774;SDS011;6451;42.630;23.382;2023-05-14T02:33:38;4.53;;;3.07;;
12774;SDS011;6451;42.630;23.382;2023-05-14T02:36:05;3.53;;;3.00;;
12774;SDS011;6451;42.630;23.382;2023-05-14T02:38:33;4.67;;;3.50;;
12774;SDS011;6451;42.630;23.382;2023-05-14T02:41:00;3.37;;;2.87;;
12774;SDS011;6451;42.630;23.382;2023-05-14T02:43:27;4.30;;;3.23;;
12774;SDS011;6451;42.630;23.382;2023-05-14T02:45:54;4.43;;;3.30;;
12774;SDS011;6451;42.630;23.382;2023-05-14T02:48:22;3.50;;;3.10;;
12774;SDS011;6451;42.630;23.382;2023-05-14T02:50:49;4.17;;;2.80;;
12774;SDS011;6451;42.630;23.382;2023-05-14T02:53:17;4.00;;;2.93;;
12774;SDS011;6451;42.630;23.382;2023-05-14T02:55:43;3.63;;;3.10;;
12774;SDS011;6451;42.630;23.382;2023-05-14T02:58:10;4.90;;;3.60;;
12774;SDS011;6451;42.630;23.382;2023-05-14T03:00:37;3.27;;;2.93;;
12774;SDS011;6451;42.630;23.382;2023-05-14T03:03:04;3.67;;;3.20;;
12774;SDS011;6451;42.630;23.382;2023-05-14T03:05:34;4.17;;;3.10;;
12774;SDS011;6451;42.630;23.382;2023-05-14T03:08:01;3.60;;;3.30;;
12774;SDS011;6451;42.630;23.382;2023-05-14T03:10:28;4.23;;;3.40;;
12774;SDS011;6451;42.630;23.382;2023-05-14T03:12:57;4.63;;;3.30;;
12774;SDS011;6451;42.630;23.382;2023-05-14T03:15:24;5.73;;;3.47;;
12774;SDS011;6451;42.630;23.382;2023-05-14T03:17:51;3.50;;;2.80;;
12774;SDS011;6451;42.630;23.382;2023-05-14T03:20:18;6.37;;;3.33;;
12774;SDS011;6451;42.630;23.382;2023-05-14T03:22:46;3.70;;;3.10;;
12774;SDS011;6451;42.630;23.382;2023-05-14T03:25:13;3.30;;;3.00;;
12774;SDS011;6451;42.630;23.382;2023-05-14T03:27:40;4.10;;;3.37;;
12774;SDS011;6451;42.630;23.382;2023-05-14T03:30:07;4.93;;;3.30;;
12774;SDS011;6451;42.630;23.382;2023-05-14T03:32:35;4.20;;;3.60;;
12774;SDS011;6451;42.630;23.382;2023-05-14T03:35:03;3.67;;;3.30;;
12774;SDS011;6451;42.630;23.382;2023-05-14T03:37:30;4.00;;;3.60;;
12774;SDS011;6451;42.630;23.382;2023-05-14T03:39:59;4.20;;;3.80;;
12774;SDS011;6451;42.630;23.382;2023-05-14T03:42:26;5.00;;;3.63;;
12774;SDS011;6451;42.630;23.382;2023-05-14T03:44:53;3.83;;;3.43;;
12774;SDS011;6451;42.630;23.382;2023-05-14T03:47:19;3.93;;;3.53;;
12774;SDS011;6451;42.630;23.382;2023-05-14T03:49:46;6.13;;;3.60;;
12774;SDS011;6451;42.630;23.382;2023-05-14T03:52:13;4.40;;;3.93;;
12774;SDS011;6451;42.630;23.382;2023-05-14T03:54:40;4.17;;;3.40;;
12774;SDS011;6451;42.630;23.382;2023-05-14T03:57:10;3.83;;;3.43;;
12774;SDS011;6451;42.630;23.382;2023-05-14T03:59:37;5.40;;;3.80;;
12774;SDS011;6451;42.630;23.382;2023-05-14T04:02:04;4.00;;;3.50;;
12774;SDS011;6451;42.630;23.382;2023-05-14T04:04:31;4.67;;;3.90;;
12774;SDS011;6451;42.630;23.382;2023-05-14T04:06:59;4.70;;;4.00;;
12774;SDS011;6451;42.630;23.382;2023-05-14T04:09:27;3.83;;;3.53;;
12774;SDS011;6451;42.630;23.382;2023-05-14T04:11:54;4.00;;;3.47;;
12774;SDS011;6451;42.630;23.382;2023-05-14T04:14:22;4.40;;;3.40;;
12774;SDS011;6451;42.630;23.382;2023-05-14T04:16:50;4.93;;;3.50;;
12774;SDS011;6451;42.630;23.382;2023-05-14T04:19:17;4.53;;;3.50;;
12774;SDS011;6451;42.630;23.382;2023-05-14T04:21:44;4.23;;;3.80;;
12774;SDS011;6451;42.630;23.382;2023-05-14T04:24:11;5.67;;;3.30;;
12774;SDS011;6451;42.630;23.382;2023-05-14T04:26:37;4.67;;;3.40;;
12774;SDS011;6451;42.630;23.382;2023-05-14T04:29:04;8.77;;;3.50;;
12774;SDS011;6451;42.630;23.382;2023-05-14T04:31:33;6.87;;;3.47;;
12774;SDS011;6451;42.630;23.382;2023-05-14T04:34:00;3.60;;;3.30;;
12774;SDS011;6451;42.630;23.382;2023-05-14T04:36:27;3.87;;;3.47;;
12774;SDS011;6451;42.630;23.382;2023-05-14T04:38:54;4.93;;;3.43;;
12774;SDS011;6451;42.630;23.382;2023-05-14T04:41:21;4.97;;;3.53;;
12774;SDS011;6451;42.630;23.382;2023-05-14T04:43:50;4.83;;;3.07;;
12774;SDS011;6451;42.630;23.382;2023-05-14T04:46:22;4.10;;;3.10;;
12774;SDS011;6451;42.630;23.382;2023-05-14T04:48:51;3.80;;;3.00;;
12774;SDS011;6451;42.630;23.382;2023-05-14T04:51:18;4.67;;;3.47;;
12774;SDS011;6451;42.630;23.382;2023-05-14T04:53:45;6.50;;;4.30;;
12774;SDS011;6451;42.630;23.382;2023-05-14T04:56:12;4.60;;;3.53;;
12774;SDS011;6451;42.630;23.382;2023-05-14T04:58:39;4.43;;;3.60;;
12774;SDS011;6451;42.630;23.382;2023-05-14T05:01:06;4.43;;;3.53;;
12774;SDS011;6451;42.630;23.382;2023-05-14T05:03:33;3.87;;;3.33;;
12774;SDS011;6451;42.630;23.382;2023-05-14T05:06:01;5.63;;;3.73;;
12774;SDS011;6451;42.630;23.382;2023-05-14T05:08:28;5.30;;;3.80;;
12774;SDS011;6451;42.630;23.382;2023-05-14T05:10:56;5.37;;;3.87;;
12774;SDS011;6451;42.630;23.382;2023-05-14T05:13:23;7.83;;;3.93;;
12774;SDS011;6451;42.630;23.382;2023-05-14T05:15:50;5.97;;;4.17;;
12774;SDS011;6451;42.630;23.382;2023-05-14T05:18:17;6.13;;;4.03;;
12774;SDS011;6451;42.630;23.382;2023-05-14T05:20:44;4.47;;;4.00;;
12774;SDS011;6451;42.630;23.382;2023-05-14T05:23:13;5.37;;;4.27;;
12774;SDS011;6451;42.630;23.382;2023-05-14T05:25:40;5.50;;;4.20;;
12774;SDS011;6451;42.630;23.382;2023-05-14T05:28:08;6.23;;;4.53;;
12774;SDS011;6451;42.630;23.382;2023-05-14T05:30:35;5.23;;;4.10;;
12774;SDS011;6451;42.630;23.382;2023-05-14T05:33:02;6.57;;;4.60;;
12774;SDS011;6451;42.630;23.382;2023-05-14T05:35:29;6.03;;;4.27;;
12774;SDS011;6451;42.630;23.382;2023-05-14T05:37:57;5.50;;;4.57;;
12774;SDS011;6451;42.630;23.382;2023-05-14T05:40:25;7.87;;;4.30;;
12774;SDS011;6451;42.630;23.382;2023-05-14T05:42:52;7.77;;;5.20;;
12774;SDS011;6451;42.630;23.382;2023-05-14T05:45:25;6.93;;;5.10;;
12774;SDS011;6451;42.630;23.382;2023-05-14T05:47:52;8.90;;;6.20;;
12774;SDS011;6451;42.630;23.382;2023-05-14T05:50:19;7.90;;;5.30;;
12774;SDS011;6451;42.630;23.382;2023-05-14T05:52:46;6.83;;;5.47;;
12774;SDS011;6451;42.630;23.382;2023-05-14T05:55:13;5.87;;;5.33;;
12774;SDS011;6451;42.630;23.382;2023-05-14T05:57:42;5.83;;;5.27;;
12774;SDS011;6451;42.630;23.382;2023-05-14T06:00:10;7.43;;;5.23;;
12774;SDS011;6451;42.630;23.382;2023-05-14T06:02:39;5.50;;;5.00;;
12774;SDS011;6451;42.630;23.382;2023-05-14T06:05:07;6.20;;;5.47;;
12774;SDS011;6451;42.630;23.382;2023-05-14T06:07:34;7.37;;;5.33;;
12774;SDS011;6451;42.630;23.382;2023-05-14T06:10:01;6.20;;;4.87;;
12774;SDS011;6451;42.630;23.382;2023-05-14T06:12:29;6.43;;;5.53;;
12774;SDS011;6451;42.630;23.382;2023-05-14T06:14:57;7.73;;;5.70;;
12774;SDS011;6451;42.630;23.382;2023-05-14T06:17:24;7.50;;;5.43;;
12774;SDS011;6451;42.630;23.382;2023-05-14T06:19:51;6.83;;;5.73;;
12774;SDS011;6451;42.630;23.382;2023-05-14T06:22:18;6.27;;;5.20;;
12774;SDS011;6451;42.630;23.382;2023-05-14T06:24:46;6.97;;;5.70;;
12774;SDS011;6451;42.630;23.382;2023-05-14T06:27:13;7.27;;;5.00;;
12774;SDS011;6451;42.630;23.382;2023-05-14T06:29:40;6.63;;;5.27;;
12774;SDS011;6451;42.630;23.382;2023-05-14T06:32:12;6.57;;;5.17;;
12774;SDS011;6451;42.630;23.382;2023-05-14T06:34:39;6.37;;;5.63;;
12774;SDS011;6451;42.630;23.382;2023-05-14T06:37:06;6.90;;;6.20;;
12774;SDS011;6451;42.630;23.382;2023-05-14T06:39:33;7.43;;;5.60;;
12774;SDS011;6451;42.630;23.382;2023-05-14T06:42:00;7.60;;;5.60;;
12774;SDS011;6451;42.630;23.382;2023-05-14T06:44:27;7.03;;;5.30;;
12774;SDS011;6451;42.630;23.382;2023-05-14T06:46:54;7.20;;;5.93;;
12774;SDS011;6451;42.630;23.382;2023-05-14T06:49:23;6.43;;;5.63;;
12774;SDS011;6451;42.630;23.382;2023-05-14T06:51:52;6.43;;;5.67;;
12774;SDS011;6451;42.630;23.382;2023-05-14T06:54:19;7.27;;;5.73;;
12774;SDS011;6451;42.630;23.382;2023-05-14T06:56:46;6.33;;;5.50;;
12774;SDS011;6451;42.630;23.382;2023-05-14T06:59:12;10.97;;;6.10;;
12774;SDS011;6451;42.630;23.382;2023-05-14T07:01:40;7.20;;;6.17;;
12774;SDS011;6451;42.630;23.382;2023-05-14T07:04:07;6.50;;;5.90;;
12774;SDS011;6451;42.630;23.382;2023-05-14T07:06:37;7.63;;;6.37;;
12774;SDS011;6451;42.630;23.382;2023-05-14T07:09:04;9.30;;;6.37;;
12774;SDS011;6451;42.630;23.382;2023-05-14T07:11:34;7.20;;;6.03;;
12774;SDS011;6451;42.630;23.382;2023-05-14T07:14:01;7.03;;;5.87;;
12774;SDS011;6451;42.630;23.382;2023-05-14T07:16:28;7.33;;;6.30;;
12774;SDS011;6451;42.630;23.382;2023-05-14T07:18:57;9.83;;;6.30;;
12774;SDS011;6451;42.630;23.382;2023-05-14T07:21:28;7.27;;;6.17;;
12774;SDS011;6451;42.630;23.382;2023-05-14T07:23:57;7.90;;;6.00;;
12774;SDS011;6451;42.630;23.382;2023-05-14T07:26:24;6.07;;;5.47;;
12774;SDS011;6451;42.630;23.382;2023-05-14T07:28:51;6.33;;;5.73;;
12774;SDS011;6451;42.630;23.382;2023-05-14T07:31:18;7.50;;;5.80;;
12774;SDS011;6451;42.630;23.382;2023-05-14T07:33:45;7.67;;;5.93;;
12774;SDS011;6451;42.630;23.382;2023-05-14T07:36:12;8.63;;;7.73;;
12774;SDS011;6451;42.630;23.382;2023-05-14T07:38:39;9.13;;;8.20;;
12774;SDS011;6451;42.630;23.382;2023-05-14T07:41:07;10.07;;;8.30;;
12774;SDS011;6451;42.630;23.382;2023-05-14T07:43:35;8.60;;;6.47;;
12774;SDS011;6451;42.630;23.382;2023-05-14T07:46:04;9.80;;;6.53;;
12774;SDS011;6451;42.630;23.382;2023-05-14T07:48:31;8.83;;;6.40;;
12774;SDS011;6451;42.630;23.382;2023-05-14T07:50:58;7.00;;;6.30;;
12774;SDS011;6451;42.630;23.382;2023-05-14T07:53:28;8.47;;;6.30;;
12774;SDS011;6451;42.630;23.382;2023-05-14T07:55:56;14.27;;;7.47;;
12774;SDS011;6451;42.630;23.382;2023-05-14T07:58:26;10.57;;;7.20;;
12774;SDS011;6451;42.630;23.382;2023-05-14T08:00:54;8.47;;;7.40;;
12774;SDS011;6451;42.630;23.382;2023-05-14T08:03:21;8.60;;;7.37;;
12774;SDS011;6451;42.630;23.382;2023-05-14T08:05:48;8.30;;;7.40;;
12774;SDS011;6451;42.630;23.382;2023-05-14T08:08:15;9.27;;;7.10;;
12774;SDS011;6451;42.630;23.382;2023-05-14T08:10:42;13.27;;;6.93;;
12774;SDS011;6451;42.630;23.382;2023-05-14T08:13:09;10.23;;;7.37;;
12774;SDS011;6451;42.630;23.382;2023-05-14T08:15:38;6.83;;;6.00;;
12774;SDS011;6451;42.630;23.382;2023-05-14T08:18:05;6.70;;;5.37;;
12774;SDS011;6451;42.630;23.382;2023-05-14T08:20:32;7.97;;;6.00;;
12774;SDS011;6451;42.630;23.382;2023-05-14T08:22:59;7.37;;;5.90;;
12774;SDS011;6451;42.630;23.382;2023-05-14T08:25:26;6.53;;;5.70;;
12774;SDS011;6451;42.630;23.382;2023-05-14T08:27:53;6.70;;;6.10;;
12774;SDS011;6451;42.630;23.382;2023-05-14T08:30:20;7.27;;;5.70;;
12774;SDS011;6451;42.630;23.382;2023-05-14T08:32:48;6.23;;;5.60;;
12774;SDS011;6451;42.630;23.382;2023-05-14T08:35:15;6.73;;;5.87;;
12774;SDS011;6451;42.630;23.382;2023-05-14T08:37:43;7.90;;;6.57;;
12774;SDS011;6451;42.630;23.382;2023-05-14T08:40:10;8.53;;;6.57;;
12774;SDS011;6451;42.630;23.382;2023-05-14T08:42:38;6.33;;;5.73;;
12774;SDS011;6451;42.630;23.382;2023-05-14T08:45:07;10.67;;;8.30;;
12774;SDS011;6451;42.630;23.382;2023-05-14T08:47:37;7.03;;;6.33;;
12774;SDS011;6451;42.630;23.382;2023-05-14T08:50:07;7.47;;;6.13;;
12774;SDS011;6451;42.630;23.382;2023-05-14T08:52:34;8.70;;;6.97;;
12774;SDS011;6451;42.630;23.382;2023-05-14T08:55:02;7.00;;;6.30;;
12774;SDS011;6451;42.630;23.382;2023-05-14T08:57:31;8.00;;;6.10;;
12774;SDS011;6451;42.630;23.382;2023-05-14T08:59:59;8.23;;;7.43;;
12774;SDS011;6451;42.630;23.382;2023-05-14T09:02:32;7.60;;;6.80;;
12774;SDS011;6451;42.630;23.382;2023-05-14T09:05:01;7.20;;;6.37;;
12774;SDS011;6451;42.630;23.382;2023-05-14T09:07:30;6.13;;;5.53;;
12774;SDS011;6451;42.630;23.382;2023-05-14T09:09:57;7.77;;;6.17;;
12774;SDS011;6451;42.630;23.382;2023-05-14T09:12:27;6.37;;;5.80;;
12774;SDS011;6451;42.630;23.382;2023-05-14T09:14:55;7.50;;;6.70;;
12774;SDS011;6451;42.630;23.382;2023-05-14T09:17:23;7.27;;;5.97;;
12774;SDS011;6451;42.630;23.382;2023-05-14T09:19:51;8.23;;;7.43;;
12774;SDS011;6451;42.630;23.382;2023-05-14T09:22:18;5.80;;;5.30;;
12774;SDS011;6451;42.630;23.382;2023-05-14T09:24:47;6.33;;;5.70;;
12774;SDS011;6451;42.630;23.382;2023-05-14T09:27:28;6.20;;;5.60;;
12774;SDS011;6451;42.630;23.382;2023-05-14T09:30:02;4.93;;;4.53;;
12774;SDS011;6451;42.630;23.382;2023-05-14T09:32:34;8.17;;;4.70;;
12774;SDS011;6451;42.630;23.382;2023-05-14T09:35:11;4.50;;;4.10;;
12774;SDS011;6451;42.630;23.382;2023-05-14T09:37:41;5.80;;;4.97;;
12774;SDS011;6451;42.630;23.382;2023-05-14T09:40:11;5.10;;;4.70;;
12774;SDS011;6451;42.630;23.382;2023-05-14T09:42:39;5.83;;;4.87;;
12774;SDS011;6451;42.630;23.382;2023-05-14T09:45:07;6.20;;;4.60;;
12774;SDS011;6451;42.630;23.382;2023-05-14T09:47:35;4.90;;;4.50;;
12774;SDS011;6451;42.630;23.382;2023-05-14T09:50:05;5.03;;;4.53;;
12774;SDS011;6451;42.630;23.382;2023-05-14T09:52:33;5.17;;;4.40;;
12774;SDS011;6451;42.630;23.382;2023-05-14T09:55:00;4.53;;;4.13;;
12774;SDS011;6451;42.630;23.382;2023-05-14T09:57:28;5.03;;;4.20;;
12774;SDS011;6451;42.630;23.382;2023-05-14T09:59:55;4.87;;;4.40;;
12774;SDS011;6451;42.630;23.382;2023-05-14T10:02:22;4.67;;;4.27;;
12774;SDS011;6451;42.630;23.382;2023-05-14T10:04:52;4.20;;;3.90;;
12774;SDS011;6451;42.630;23.382;2023-05-14T10:07:23;4.77;;;4.00;;
12774;SDS011;6451;42.630;23.382;2023-05-14T10:09:53;4.33;;;3.97;;
12774;SDS011;6451;42.630;23.382;2023-05-14T10:12:24;4.17;;;3.80;;
12774;SDS011;6451;42.630;23.382;2023-05-14T10:15:00;4.37;;;3.97;;
12774;SDS011;6451;42.630;23.382;2023-05-14T10:17:33;5.10;;;4.27;;
12774;SDS011;6451;42.630;23.382;2023-05-14T10:20:01;3.90;;;3.60;;
12774;SDS011;6451;42.630;23.382;2023-05-14T10:22:32;4.70;;;3.80;;
12774;SDS011;6451;42.630;23.382;2023-05-14T10:25:00;4.20;;;3.80;;
12774;SDS011;6451;42.630;23.382;2023-05-14T10:27:31;4.20;;;3.90;;
12774;SDS011;6451;42.630;23.382;2023-05-14T10:29:58;3.53;;;3.23;;
12774;SDS011;6451;42.630;23.382;2023-05-14T10:32:25;5.13;;;4.63;;
12774;SDS011;6451;42.630;23.382;2023-05-14T10:34:57;7.17;;;6.47;;
12774;SDS011;6451;42.630;23.382;2023-05-14T10:37:27;4.53;;;4.10;;
12774;SDS011;6451;42.630;23.382;2023-05-14T10:39:56;4.47;;;4.10;;
12774;SDS011;6451;42.630;23.382;2023-05-14T10:42:25;7.07;;;4.37;;
12774;SDS011;6451;42.630;23.382;2023-05-14T10:45:00;5.67;;;5.17;;
12774;SDS011;6451;42.630;23.382;2023-05-14T10:47:30;4.83;;;4.43;;
12774;SDS011;6451;42.630;23.382;2023-05-14T10:49:58;4.87;;;4.47;;
12774;SDS011;6451;42.630;23.382;2023-05-14T10:52:28;5.10;;;4.60;;
12774;SDS011;6451;42.630;23.382;2023-05-14T10:54:55;4.63;;;4.23;;
12774;SDS011;6451;42.630;23.382;2023-05-14T10:57:24;5.30;;;4.80;;
12774;SDS011;6451;42.630;23.382;2023-05-14T10:59:53;4.97;;;4.47;;
12774;SDS011;6451;42.630;23.382;2023-05-14T11:02:23;4.53;;;4.20;;
12774;SDS011;6451;42.630;23.382;2023-05-14T11:04:55;4.70;;;4.30;;
12774;SDS011;6451;42.630;23.382;2023-05-14T11:07:24;4.37;;;3.97;;
12774;SDS011;6451;42.630;23.382;2023-05-14T11:09:56;4.47;;;4.07;;
12774;SDS011;6451;42.630;23.382;2023-05-14T11:12:26;4.17;;;3.87;;
12774;SDS011;6451;42.630;23.382;2023-05-14T11:14:55;4.27;;;3.90;;
12774;SDS011;6451;42.630;23.382;2023-05-14T11:17:25;4.50;;;4.10;;
12774;SDS011;6451;42.630;23.382;2023-05-14T11:19:53;4.17;;;3.87;;
12774;SDS011;6451;42.630;23.382;2023-05-14T11:22:20;4.50;;;4.10;;
12774;SDS011;6451;42.630;23.382;2023-05-14T11:24:47;4.97;;;4.30;;
12774;SDS011;6451;42.630;23.382;2023-05-14T11:27:15;4.30;;;4.00;;
12774;SDS011;6451;42.630;23.382;2023-05-14T11:29:45;5.00;;;4.50;;
12774;SDS011;6451;42.630;23.382;2023-05-14T11:32:14;6.10;;;5.60;;
12774;SDS011;6451;42.630;23.382;2023-05-14T11:34:44;5.77;;;5.27;;
12774;SDS011;6451;42.630;23.382;2023-05-14T11:37:12;5.90;;;5.30;;
12774;SDS011;6451;42.630;23.382;2023-05-14T11:39:45;6.70;;;6.10;;
12774;SDS011;6451;42.630;23.382;2023-05-14T11:42:13;7.80;;;5.30;;
12774;SDS011;6451;42.630;23.382;2023-05-14T11:44:42;5.63;;;5.13;;
12774;SDS011;6451;42.630;23.382;2023-05-14T11:47:11;6.57;;;5.97;;
12774;SDS011;6451;42.630;23.382;2023-05-14T11:49:38;5.70;;;5.20;;
12774;SDS011;6451;42.630;23.382;2023-05-14T11:52:07;4.93;;;4.53;;
12774;SDS011;6451;42.630;23.382;2023-05-14T11:54:35;4.60;;;4.20;;
12774;SDS011;6451;42.630;23.382;2023-05-14T11:57:06;4.53;;;4.20;;
12774;SDS011;6451;42.630;23.382;2023-05-14T11:59:34;5.77;;;5.27;;
12774;SDS011;6451;42.630;23.382;2023-05-14T12:02:01;6.03;;;5.53;;
12774;SDS011;6451;42.630;23.382;2023-05-14T12:04:29;5.60;;;5.20;;
12774;SDS011;6451;42.630;23.382;2023-05-14T12:06:57;5.80;;;5.33;;
12774;SDS011;6451;42.630;23.382;2023-05-14T12:09:26;6.50;;;5.60;;
12774;SDS011;6451;42.630;23.382;2023-05-14T12:11:53;5.30;;;4.80;;
12774;SDS011;6451;42.630;23.382;2023-05-14T12:14:21;5.60;;;5.00;;
12774;SDS011;6451;42.630;23.382;2023-05-14T12:16:50;5.13;;;4.57;;
12774;SDS011;6451;42.630;23.382;2023-05-14T12:19:17;5.87;;;4.03;;
12774;SDS011;6451;42.630;23.382;2023-05-14T12:21:47;5.00;;;4.50;;
12774;SDS011;6451;42.630;23.382;2023-05-14T12:24:17;4.80;;;4.40;;
12774;SDS011;6451;42.630;23.382;2023-05-14T12:26:47;4.63;;;4.23;;
12774;SDS011;6451;42.630;23.382;2023-05-14T12:29:15;5.30;;;4.60;;
12774;SDS011;6451;42.630;23.382;2023-05-14T12:31:47;5.20;;;4.70;;
12774;SDS011;6451;42.630;23.382;2023-05-14T12:34:15;5.33;;;4.83;;
12774;SDS011;6451;42.630;23.382;2023-05-14T12:36:42;5.20;;;4.80;;
12774;SDS011;6451;42.630;23.382;2023-05-14T12:39:09;6.10;;;5.33;;
12774;SDS011;6451;42.630;23.382;2023-05-14T12:41:38;6.77;;;5.27;;
12774;SDS011;6451;42.630;23.382;2023-05-14T12:44:07;5.50;;;5.10;;
12774;SDS011;6451;42.630;23.382;2023-05-14T12:46:33;6.73;;;6.13;;
12774;SDS011;6451;42.630;23.382;2023-05-14T12:49:01;6.50;;;5.90;;
12774;SDS011;6451;42.630;23.382;2023-05-14T12:51:27;6.17;;;5.67;;
12774;SDS011;6451;42.630;23.382;2023-05-14T12:53:55;9.37;;;6.40;;
12774;SDS011;6451;42.630;23.382;2023-05-14T12:56:22;7.40;;;6.80;;
12774;SDS011;6451;42.630;23.382;2023-05-14T12:58:53;6.73;;;6.13;;
12774;SDS011;6451;42.630;23.382;2023-05-14T13:01:23;7.80;;;7.10;;
12774;SDS011;6451;42.630;23.382;2023-05-14T13:03:50;8.07;;;7.27;;
12774;SDS011;6451;42.630;23.382;2023-05-14T13:06:17;8.73;;;8.03;;
12774;SDS011;6451;42.630;23.382;2023-05-14T13:08:44;8.83;;;8.07;;
12774;SDS011;6451;42.630;23.382;2023-05-14T13:11:11;9.20;;;8.40;;
12774;SDS011;6451;42.630;23.382;2023-05-14T13:13:38;9.10;;;8.30;;
12774;SDS011;6451;42.630;23.382;2023-05-14T13:16:05;8.53;;;7.83;;
12774;SDS011;6451;42.630;23.382;2023-05-14T13:18:34;9.00;;;8.20;;
12774;SDS011;6451;42.630;23.382;2023-05-14T13:21:01;12.17;;;9.77;;
12774;SDS011;6451;42.630;23.382;2023-05-14T13:23:30;12.00;;;10.03;;
12774;SDS011;6451;42.630;23.382;2023-05-14T13:25:58;11.27;;;10.17;;
12774;SDS011;6451;42.630;23.382;2023-05-14T13:28:25;9.60;;;8.70;;
12774;SDS011;6451;42.630;23.382;2023-05-14T13:31:05;11.00;;;9.93;;
12774;SDS011;6451;42.630;23.382;2023-05-14T13:33:35;12.27;;;11.07;;
12774;SDS011;6451;42.630;23.382;2023-05-14T13:36:03;11.00;;;9.97;;
12774;SDS011;6451;42.630;23.382;2023-05-14T13:38:31;11.17;;;10.17;;
12774;SDS011;6451;42.630;23.382;2023-05-14T13:40:58;12.20;;;11.00;;
12774;SDS011;6451;42.630;23.382;2023-05-14T13:43:27;12.03;;;10.93;;
12774;SDS011;6451;42.630;23.382;2023-05-14T13:45:55;11.73;;;10.53;;
12774;SDS011;6451;42.630;23.382;2023-05-14T13:48:22;12.20;;;11.00;;
12774;SDS011;6451;42.630;23.382;2023-05-14T13:50:50;12.23;;;11.00;;
12774;SDS011;6451;42.630;23.382;2023-05-14T13:53:17;12.23;;;11.07;;
12774;SDS011;6451;42.630;23.382;2023-05-14T13:55:44;11.93;;;10.80;;
12774;SDS011;6451;42.630;23.382;2023-05-14T13:58:12;12.90;;;11.70;;
12774;SDS011;6451;42.630;23.382;2023-05-14T14:00:39;15.37;;;13.77;;
12774;SDS011;6451;42.630;23.382;2023-05-14T14:03:06;13.13;;;11.77;;
12774;SDS011;6451;42.630;23.382;2023-05-14T14:05:33;12.07;;;10.90;;
12774;SDS011;6451;42.630;23.382;2023-05-14T14:08:02;11.43;;;10.37;;
12774;SDS011;6451;42.630;23.382;2023-05-14T14:10:30;12.13;;;11.03;;
12774;SDS011;6451;42.630;23.382;2023-05-14T14:12:57;12.40;;;11.30;;
12774;SDS011;6451;42.630;23.382;2023-05-14T14:15:24;11.47;;;10.37;;
12774;SDS011;6451;42.630;23.382;2023-05-14T14:17:51;12.00;;;10.83;;
12774;SDS011;6451;42.630;23.382;2023-05-14T14:20:18;11.70;;;10.47;;
12774;SDS011;6451;42.630;23.382;2023-05-14T14:22:45;10.37;;;9.47;;
12774;SDS011;6451;42.630;23.382;2023-05-14T14:25:13;11.17;;;10.17;;
12774;SDS011;6451;42.630;23.382;2023-05-14T14:27:40;11.50;;;10.40;;
12774;SDS011;6451;42.630;23.382;2023-05-14T14:30:08;11.23;;;9.97;;
12774;SDS011;6451;42.630;23.382;2023-05-14T14:32:41;11.30;;;10.30;;
12774;SDS011;6451;42.630;23.382;2023-05-14T14:35:09;10.60;;;9.70;;
12774;SDS011;6451;42.630;23.382;2023-05-14T14:37:37;12.77;;;11.57;;
12774;SDS011;6451;42.630;23.382;2023-05-14T14:40:06;11.60;;;10.60;;
12774;SDS011;6451;42.630;23.382;2023-05-14T14:42:36;10.97;;;9.97;;
12774;SDS011;6451;42.630;23.382;2023-05-14T14:45:04;12.27;;;11.07;;
12774;SDS011;6451;42.630;23.382;2023-05-14T14:47:31;10.40;;;9.40;;
12774;SDS011;6451;42.630;23.382;2023-05-14T14:49:58;14.00;;;12.70;;